Time;durP1;ratioP1;P1;durP2;ratioP2;P2;SDS_P1;SDS_P2;PMS_P1;PMS_P2;Temp;Humidity;BMP_temperature;BMP_pressure;BME280_temperature;BME280_humidity;BME280_pressure;Samples;Min_cycle;Max_cycle;Signal;HPM_P1;HPM_P2
2022/12/30 07:37:02;;;;;;;;;;;;;;;;;;;;;
2022/12/30 12:04:31;;;;;;;2.20;1.30;;;;;;;-145.06;100.00;60892.56;5933335;23;20018;-88
2022/12/30 12:19:42;;;;;;;1.38;0.65;;;;;;;-145.06;100.00;60892.56;5937668;23;20116;-92
2022/12/30 12:22:37;;;;;;;1.10;0.50;;;;;;;-145.06;100.00;60892.56;5920899;23;20013;-89
2022/12/30 12:25:23;;;;;;;0.60;0.40;;;;;;;-145.06;100.00;60892.56;5921064;23;20009;-89
2022/12/30 12:56:54;;;;;;;1.27;0.70;;;;;;;-145.06;100.00;60892.56;5894055;23;20022;-89
2022/12/30 12:59:55;;;;;;;1.43;0.83;;;;;;;-145.06;100.00;60892.56;5865761;23;20279;-90
2022/12/30 13:03:06;;;;;;;2.00;0.68;;;;;;;-145.06;100.00;60892.56;5863730;23;20007;-89
2022/12/30 13:06:06;;;;;;;1.38;0.70;;;;;;;-145.06;100.00;60892.56;5862619;23;20014;-89
2022/12/30 13:09:19;;;;;;;2.10;0.82;;;;;;;-145.06;100.00;60892.56;5864404;23;20003;-90
2022/12/30 13:12:15;;;;;;;2.00;0.80;;;;;;;-145.06;100.00;60892.56;5863710;23;20010;-90
2022/12/30 13:15:00;;;;;;;1.42;0.85;;;;;;;-145.06;100.00;60892.56;5862819;23;20011;-90
2022/12/30 13:17:44;;;;;;;2.22;0.77;;;;;;;-145.06;100.00;60892.56;5862701;23;20015;-89
2022/12/30 13:20:28;;;;;;;1.13;0.60;;;;;;;-145.06;100.00;60892.56;5862456;23;20014;-89
2022/12/30 13:23:11;;;;;;;1.27;0.60;;;;;;;-145.06;100.00;60892.56;5862344;23;20002;-93
2022/12/30 13:26:02;;;;;;;0.50;0.50;;;;;;;-145.06;100.00;60892.56;5861288;23;20011;-90
2022/12/30 13:28:47;;;;;;;1.90;0.60;;;;;;;-145.06;100.00;60892.56;5862265;23;20500;-91
2022/12/30 13:31:33;;;;;;;0.98;0.60;;;;;;;-145.06;100.00;60892.56;5863780;23;20336;-89
2022/12/30 13:34:24;;;;;;;0.55;0.40;;;;;;;-145.06;100.00;60892.56;5867745;23;20010;-89
2022/12/30 13:37:13;;;;;;;3.20;0.68;;;;;;;-145.06;100.00;60892.56;5867295;23;20014;-90
2022/12/30 13:40:02;;;;;;;0.40;0.38;;;;;;;-145.06;100.00;60892.56;5898986;23;20033;-91
2022/12/30 13:43:23;;;;;;;0.70;0.50;;;;;;;-145.06;100.00;60892.56;5867274;23;19999;-90
2022/12/30 13:46:03;;;;;;;0.77;0.50;;;;;;;-145.06;100.00;60892.56;5866982;23;20010;-90
2022/12/30 13:49:15;;;;;;;1.45;0.50;;;;;;;-145.06;100.00;60892.56;5867496;23;20097;-90
2022/12/30 13:52:18;;;;;;;0.68;0.40;;;;;;;-145.06;100.00;60892.56;5868809;23;20140;-91
2022/12/30 13:54:59;;;;;;;0.55;0.45;;;;;;;-145.06;100.00;60892.56;5883795;23;20018;-90
2022/12/30 13:57:40;;;;;;;1.92;0.47;;;;;;;-145.06;100.00;60892.56;5898658;23;20010;-90
2022/12/30 14:00:22;;;;;;;0.60;0.50;;;;;;;-145.06;100.00;60892.56;5897643;23;20013;-90
2022/12/30 14:03:36;;;;;;;0.75;0.40;;;;;;;-145.06;100.00;60892.56;5897743;23;20428;-91
2022/12/30 14:06:40;;;;;;;1.75;1.10;;;;;;;-145.06;100.00;60892.56;5896996;23;20013;-91
2022/12/30 14:09:31;;;;;;;1.30;0.80;;;;;;;-145.06;100.00;60892.56;5895149;23;20013;-92
2022/12/30 14:12:12;;;;;;;0.88;0.65;;;;;;;-145.06;100.00;60892.56;5895164;23;20001;-91
2022/12/30 14:14:52;;;;;;;0.85;0.60;;;;;;;-145.06;100.00;60892.56;5915396;23;20729;-90
2022/12/30 14:17:33;;;;;;;1.23;0.77;;;;;;;-145.06;100.00;60892.56;5895670;23;20013;-91
2022/12/30 14:20:30;;;;;;;0.88;0.60;;;;;;;-145.06;100.00;60892.56;5894623;23;20010;-88
2022/12/30 14:23:41;;;;;;;1.10;0.65;;;;;;;-145.06;100.00;60892.56;5895548;23;20464;-91
2022/12/30 14:26:23;;;;;;;0.70;0.50;;;;;;;-145.06;100.00;60892.56;5896976;23;20329;-91
2022/12/30 14:29:16;;;;;;;0.85;0.40;;;;;;;-145.06;100.00;60892.56;5896936;23;20006;-91
2022/12/30 14:32:04;;;;;;;0.90;0.50;;;;;;;-145.06;100.00;60892.56;5895270;23;20014;-90
2022/12/30 14:34:46;;;;;;;1.20;0.40;;;;;;;-145.06;100.00;60892.56;5897886;23;20081;-90
2022/12/30 14:37:31;;;;;;;0.57;0.35;;;;;;;-145.06;100.00;60892.56;5898166;23;20009;-90
2022/12/30 14:40:36;;;;;;;0.60;0.40;;;;;;;-145.06;100.00;60892.56;5897951;23;20010;-90
2022/12/30 14:43:20;;;;;;;0.90;0.52;;;;;;;-145.06;100.00;60892.56;5897888;23;20006;-91
2022/12/30 14:46:36;;;;;;;1.35;0.40;;;;;;;-145.06;100.00;60892.56;5897747;23;20018;-90
2022/12/30 14:49:45;;;;;;;0.65;0.50;;;;;;;-145.06;100.00;60892.56;5897831;23;20006;-92
2022/12/30 14:56:53;;;;;;;0.40;0.40;;;;;;;-145.06;100.00;60892.56;5913743;23;20013;-91
2022/12/30 15:00:04;;;;;;;;;;;;;;;;;;;;;
2022/12/30 15:02:53;;;;;;;0.20;0.20;;;;;;;-145.06;100.00;60892.56;5929579;23;20029;-91
2022/12/30 15:05:37;;;;;;;0.57;0.30;;;;;;;-145.06;100.00;60892.56;5898308;23;20465;-92
2022/12/30 15:08:17;;;;;;;0.75;0.30;;;;;;;-145.06;100.00;60892.56;5897794;23;20009;-92
2022/12/30 15:11:14;;;;;;;0.20;0.20;;;;;;;-145.06;100.00;60892.56;5897656;23;20125;-90
2022/12/30 15:13:55;;;;;;;0.35;0.35;;;;;;;-145.06;100.00;60892.56;5899881;23;20029;-91
2022/12/30 15:16:37;;;;;;;0.50;0.30;;;;;;;-145.06;100.00;60892.56;5897489;23;20038;-91
2022/12/30 15:19:22;;;;;;;0.20;0.20;;;;;;;-145.06;100.00;60892.56;5897524;23;20389;-93
2022/12/30 15:22:42;;;;;;;0.88;0.30;;;;;;;-145.06;100.00;60892.56;5897246;23;20006;-92
2022/12/30 15:25:25;;;;;;;0.40;0.40;;;;;;;-145.06;100.00;60892.56;5897088;23;20321;-90
2022/12/30 15:28:11;;;;;;;0.30;0.30;;;;;;;-145.06;100.00;60892.56;5898823;23;20029;-89
2022/12/30 15:30:54;;;;;;;0.20;0.20;;;;;;;-145.06;100.00;60892.56;5898928;23;20110;-91
2022/12/30 15:34:08;;;;;;;0.68;0.40;;;;;;;-145.06;100.00;60892.56;5895924;23;20001;-90
2022/12/30 15:36:48;;;;;;;0.30;0.30;;;;;;;-145.06;100.00;60892.56;5896522;23;20029;-91
2022/12/30 15:39:40;;;;;;;;;;;;;;;-145.06;100.00;60892.56;5897304;23;20013;-90
2022/12/30 15:42:43;;;;;;;0.22;0.20;;;;;;;-145.06;100.00;60892.56;5917676;23;19909;-91
2022/12/30 15:45:46;;;;;;;0.30;0.25;;;;;;;-145.06;100.00;60892.56;5896374;23;20010;-91
2022/12/30 15:48:41;;;;;;;0.73;0.40;;;;;;;-145.06;100.00;60892.56;5897383;23;20001;-91
2022/12/30 15:51:36;;;;;;;0.32;0.30;;;;;;;-145.06;100.00;60892.56;5897476;23;20010;-90
2022/12/30 15:54:29;;;;;;;0.30;0.30;;;;;;;-145.06;100.00;60892.56;5899076;23;20009;-90
2022/12/30 15:57:39;;;;;;;0.20;0.20;;;;;;;-145.06;100.00;60892.56;5897874;23;20010;-90
2022/12/30 16:03:48;;;;;;;0.45;0.30;;;;;;;-145.06;100.00;60892.56;5929721;23;20062;-91
2022/12/30 16:06:37;;;;;;;0.25;0.25;;;;;;;-145.06;100.00;60892.56;5898883;23;20334;-91
2022/12/30 16:09:49;;;;;;;0.20;0.20;;;;;;;-145.06;100.00;60892.56;5898042;23;20014;-92
2022/12/30 16:12:42;;;;;;;0.20;0.20;;;;;;;-145.06;100.00;60892.56;5899397;23;20005;-90
2022/12/30 16:15:39;;;;;;;0.20;0.20;;;;;;;-145.06;100.00;60892.56;5898756;23;20014;-91
2022/12/30 16:18:28;;;;;;;0.20;0.20;;;;;;;-145.06;100.00;60892.56;5898294;23;20252;-92
2022/12/30 16:21:19;;;;;;;0.30;0.30;;;;;;;-145.06;100.00;60892.56;5897533;23;20010;-91
2022/12/30 16:24:11;;;;;;;0.10;0.10;;;;;;;-145.06;100.00;60892.56;5898728;23;20010;-91
2022/12/30 16:27:43;;;;;;;;;;;;;;;;;;;;;
2022/12/30 16:30:38;;;;;;;0.20;0.20;;;;;;;-145.06;100.00;60892.56;5840936;23;20454;-90
2022/12/30 16:33:21;;;;;;;0.20;0.20;;;;;;;-145.06;100.00;60892.56;5856576;23;20014;-90
2022/12/30 16:36:09;;;;;;;0.20;0.20;;;;;;;-145.06;100.00;60892.56;5896649;23;20077;-90
2022/12/30 16:39:04;;;;;;;0.10;0.10;;;;;;;-145.06;100.00;60892.56;5897278;23;20014;-92
2022/12/30 16:41:46;;;;;;;0.20;0.20;;;;;;;-145.06;100.00;60892.56;5895878;23;20041;-90
2022/12/30 16:44:35;;;;;;;0.20;0.20;;;;;;;-145.06;100.00;60892.56;5897550;23;20017;-91
2022/12/30 16:47:18;;;;;;;0.17;0.17;;;;;;;-145.06;100.00;60892.56;5899042;23;20037;-90
2022/12/30 16:50:00;;;;;;;0.20;0.20;;;;;;;-145.06;100.00;60892.56;5899567;23;20010;-90
2022/12/30 16:52:45;;;;;;;0.20;0.20;;;;;;;-145.06;100.00;60892.56;5901442;23;20010;-91
2022/12/30 17:03:07;;;;;;;0.10;0.10;;;;;;;-145.06;100.00;60892.56;5897821;23;20010;-92
2022/12/30 17:06:17;;;;;;;0.20;0.20;;;;;;;-145.06;100.00;60892.56;5867159;23;20002;-92
2022/12/30 17:10:52;;;;;;;;;;;;;;;-145.06;100.00;60892.56;5848589;23;20077;-93
2022/12/30 17:18:37;;;;;;;0.20;0.20;;;;;;;-145.06;100.00;60892.56;5943706;23;20056;-91
2022/12/30 17:21:39;;;;;;;0.28;0.22;;;;;;;-145.06;100.00;60892.56;5925820;23;20018;-93
2022/12/30 17:24:44;;;;;;;0.20;0.20;;;;;;;-145.06;100.00;60892.56;5924978;23;20065;-93
2022/12/30 17:34:40;;;;;;;;;;;;;;;;;;;;;
2022/12/30 17:40:26;;;;;;;0.20;0.20;;;;;;;-145.06;100.00;60892.56;5942711;23;20493;-92
2022/12/30 17:43:30;;;;;;;0.10;0.10;;;;;;;-145.06;100.00;60892.56;5920719;23;20313;-91
2022/12/30 17:46:59;;;;;;;0.20;0.20;;;;;;;-145.06;100.00;60892.56;5920279;23;20313;-93
2022/12/30 17:50:27;;;;;;;0.20;0.20;;;;;;;-145.06;100.00;60892.56;5918718;23;20377;-90
2022/12/30 17:53:46;;;;;;;0.20;0.20;;;;;;;-145.06;100.00;60892.56;5919445;23;20002;-92
2022/12/30 17:56:31;;;;;;;0.10;0.10;;;;;;;-145.06;100.00;60892.56;5919269;23;20029;-90
2022/12/30 17:59:10;;;;;;;0.10;0.10;;;;;;;-145.06;100.00;60892.56;5899332;23;20014;-92
2022/12/30 18:02:29;;;;;;;0.20;0.20;;;;;;;-145.06;100.00;60892.56;5918586;23;20041;-91
2022/12/30 18:05:29;;;;;;;0.20;0.20;;;;;;;-145.06;100.00;60892.56;5918939;23;20001;-93
2022/12/30 18:08:45;;;;;;;0.20;0.20;;;;;;;-145.06;100.00;60892.56;5918966;23;20006;-90
2022/12/30 18:12:17;;;;;;;0.25;0.20;;;;;;;-145.06;100.00;60892.56;5899293;23;20013;-91
2022/12/30 18:14:59;;;;;;;0.20;0.20;;;;;;;-145.06;100.00;60892.56;5918776;23;20031;-90
2022/12/30 18:18:23;;;;;;;0.13;0.13;;;;;;;-145.06;100.00;60892.56;5920131;23;20006;-90
2022/12/30 18:22:14;;;;;;;0.30;0.20;;;;;;;-145.06;100.00;60892.56;5918422;23;20006;-91
2022/12/30 18:28:31;;;;;;;0.30;0.20;;;;;;;-145.06;100.00;60892.56;5892970;23;20006;-92
2022/12/30 18:31:49;;;;;;;0.30;0.20;;;;;;;-145.06;100.00;60892.56;5920759;23;20013;-91
2022/12/30 18:35:34;;;;;;;0.20;0.20;;;;;;;-145.06;100.00;60892.56;5923162;23;20010;-93
2022/12/30 18:56:32;;;;;;;0.20;0.20;;;;;;;-145.06;100.00;60892.56;5941566;23;20519;-91
2022/12/30 18:59:38;;;;;;;0.20;0.20;;;;;;;-145.06;100.00;60892.56;5914254;23;20014;-91
2022/12/30 19:02:33;;;;;;;0.20;0.20;;;;;;;-145.06;100.00;60892.56;5892508;23;20006;-91
2022/12/30 19:49:09;;;;;;;;;;;;;;;;;;;;;
2022/12/30 19:52:52;;;;;;;0.30;0.20;;;;;;;-145.06;100.00;60892.56;5896952;23;20002;-89
2022/12/30 19:55:41;;;;;;;0.30;0.28;;;;;;;-145.06;100.00;60892.56;5815941;23;20008;-94
2022/12/30 19:58:21;;;;;;;0.20;0.20;;;;;;;-145.06;100.00;60892.56;5786276;23;20254;-92
2022/12/30 20:44:05;;;;;;;0.30;0.30;;;;;;;-145.06;100.00;60892.56;5861389;23;20054;-91
2022/12/30 20:51:47;;;;;;;0.30;0.30;;;;;;;-145.06;100.00;60892.56;5891644;23;20446;-90
2022/12/30 20:54:30;;;;;;;0.60;0.20;;;;;;;-145.06;100.00;60892.56;5866136;23;20002;-91
2022/12/30 20:57:23;;;;;;;0.20;0.20;;;;;;;-145.06;100.00;60892.56;5864348;23;20089;-91
2022/12/30 21:04:36;;;;;;;0.20;0.20;;;;;;;-145.06;100.00;60892.56;5717730;24;20009;-90
2022/12/30 21:07:58;;;;;;;0.43;0.30;;;;;;;-145.06;100.00;60892.56;5758354;23;20004;-91
2022/12/30 21:11:08;;;;;;;0.40;0.30;;;;;;;-145.06;100.00;60892.56;5792237;23;20176;-90
2022/12/30 21:13:49;;;;;;;0.20;0.20;;;;;;;-145.06;100.00;60892.56;5836356;23;20010;-90
2022/12/30 21:16:36;;;;;;;0.30;0.30;;;;;;;-145.06;100.00;60892.56;5865850;23;20037;-90
2022/12/30 21:19:47;;;;;;;0.20;0.20;;;;;;;-145.06;100.00;60892.56;5865608;23;20010;-89
2022/12/30 21:26:49;;;;;;;0.65;0.30;;;;;;;-145.06;100.00;60892.56;5823538;23;20015;-91
2022/12/30 21:29:31;;;;;;;0.20;0.20;;;;;;;-145.06;100.00;60892.56;5866080;23;20002;-90
2022/12/30 21:33:11;;;;;;;0.20;0.20;;;;;;;-145.06;100.00;60892.56;5882313;23;20293;-92
2022/12/30 21:35:51;;;;;;;0.10;0.10;;;;;;;-145.06;100.00;60892.56;5881638;23;20010;-91
2022/12/30 22:04:33;;;;;;;0.20;0.20;;;;;;;-145.06;100.00;60892.56;5899784;23;20006;-91
2022/12/30 22:07:44;;;;;;;0.30;0.20;;;;;;;-145.06;100.00;60892.56;5867376;23;20010;-91
2022/12/30 22:11:24;;;;;;;0.20;0.10;;;;;;;-145.06;100.00;60892.56;5868272;23;20242;-91
2022/12/30 22:14:07;;;;;;;0.20;0.20;;;;;;;-145.06;100.00;60892.56;5888746;23;20117;-90
2022/12/30 22:17:19;;;;;;;0.30;0.20;;;;;;;-145.06;100.00;60892.56;5866693;23;20010;-90
2022/12/30 22:19:59;;;;;;;0.40;0.40;;;;;;;-145.06;100.00;60892.56;5888038;23;20457;-91
2022/12/30 22:22:51;;;;;;;0.10;0.10;;;;;;;-145.06;100.00;60892.56;5867451;23;20086;-89
2022/12/30 22:25:34;;;;;;;0.20;0.20;;;;;;;-145.06;100.00;60892.56;5866936;23;20473;-89
2022/12/30 22:28:33;;;;;;;0.20;0.20;;;;;;;-145.06;100.00;60892.56;5867619;23;20066;-90
2022/12/30 22:31:17;;;;;;;;;;;;;;;-145.06;100.00;60892.56;5861539;23;20011;-89
2022/12/30 22:34:09;;;;;;;0.20;0.20;;;;;;;-145.06;100.00;60892.56;5869265;23;19924;-90
2022/12/30 22:36:48;;;;;;;0.30;0.20;;;;;;;-145.06;100.00;60892.56;5868042;23;20425;-89
2022/12/30 22:39:33;;;;;;;0.20;0.20;;;;;;;-145.06;100.00;60892.56;5869301;23;20010;-90
2022/12/30 22:42:12;;;;;;;0.20;0.20;;;;;;;-145.06;100.00;60892.56;5868971;23;20010;-90
2022/12/30 22:44:51;;;;;;;0.10;0.10;;;;;;;-145.06;100.00;60892.56;5870233;23;20338;-90
2022/12/30 22:47:30;;;;;;;0.10;0.10;;;;;;;-145.06;100.00;60892.56;5868796;23;20014;-90
2022/12/30 22:50:10;;;;;;;0.20;0.20;;;;;;;-145.06;100.00;60892.56;5868714;23;20021;-91
2022/12/30 22:52:50;;;;;;;0.68;0.22;;;;;;;-145.06;100.00;60892.56;5889764;23;20014;-90
2022/12/30 22:55:44;;;;;;;0.20;0.20;;;;;;;-145.06;100.00;60892.56;5888912;23;20007;-89
2022/12/30 22:58:26;;;;;;;0.65;0.20;;;;;;;-145.06;100.00;60892.56;5890038;23;20003;-90
2022/12/30 23:01:05;;;;;;;0.20;0.20;;;;;;;-145.06;100.00;60892.56;5891008;23;20002;-90
2022/12/30 23:03:47;;;;;;;0.20;0.20;;;;;;;-145.06;100.00;60892.56;5891312;23;20011;-91
2022/12/30 23:06:32;;;;;;;0.20;0.20;;;;;;;-145.06;100.00;60892.56;5891028;23;20006;-90
2022/12/30 23:09:11;;;;;;;0.40;0.30;;;;;;;-145.06;100.00;60892.56;5890642;23;20014;-91
2022/12/30 23:11:50;;;;;;;0.20;0.20;;;;;;;-145.06;100.00;60892.56;5889794;23;20014;-90
2022/12/30 23:17:27;;;;;;;0.20;0.20;;;;;;;-145.06;100.00;60892.56;5903287;23;20014;-90
2022/12/30 23:20:06;;;;;;;0.10;0.10;;;;;;;-145.06;100.00;60892.56;5892516;23;20319;-89
2022/12/30 23:25:43;;;;;;;0.20;0.20;;;;;;;-145.06;100.00;60892.56;5902180;23;20010;-91
2022/12/30 23:28:24;;;;;;;0.20;0.20;;;;;;;-145.06;100.00;60892.56;5892099;23;20030;-89
2022/12/30 23:31:03;;;;;;;0.17;0.17;;;;;;;-145.06;100.00;60892.56;5891524;23;20246;-90
2022/12/30 23:33:42;;;;;;;0.20;0.20;;;;;;;-145.06;100.00;60892.56;5893509;23;20127;-90
2022/12/30 23:36:22;;;;;;;0.10;0.10;;;;;;;-145.06;100.00;60892.56;5893116;23;20010;-90
2022/12/30 23:39:01;;;;;;;0.20;0.20;;;;;;;-145.06;100.00;60892.56;5893167;23;20010;-90
2022/12/30 23:41:41;;;;;;;0.35;0.22;;;;;;;-145.06;100.00;60892.56;5897500;23;20002;-91
2022/12/30 23:44:20;;;;;;;0.10;0.10;;;;;;;-145.06;100.00;60892.56;5909802;23;20003;-92
2022/12/30 23:46:59;;;;;;;0.20;0.20;;;;;;;-145.06;100.00;60892.56;5905543;23;20084;-89
2022/12/30 23:49:38;;;;;;;0.10;0.10;;;;;;;-145.06;100.00;60892.56;5893043;23;20034;-89
2022/12/30 23:52:20;;;;;;;0.10;0.10;;;;;;;-145.06;100.00;60892.56;5892988;23;20062;-91
2022/12/30 23:54:59;;;;;;;0.57;0.20;;;;;;;-145.06;100.00;60892.56;5892226;23;20387;-90
2022/12/30 23:57:38;;;;;;;0.20;0.20;;;;;;;-145.06;100.00;60892.56;5892976;23;20437;-90
